sensor_id;sensor_type;location;lat;lon;timestamp;pressure;altitude;pressure_sealevel;temperature;humidity
45275;BME280;31019;43.780;25.948;2022-07-05T00:01:07;100963.47;;;21.69;100.00
45275;BME280;31019;43.780;25.948;2022-07-05T00:03:35;100972.91;;;21.82;100.00
45275;BME280;31019;43.780;25.948;2022-07-05T00:06:02;100965.50;;;22.18;100.00
45275;BME280;31019;43.780;25.948;2022-07-05T00:08:30;100966.56;;;22.23;100.00
45275;BME280;31019;43.780;25.948;2022-07-05T00:10:57;100961.25;;;21.92;100.00
45275;BME280;31019;43.780;25.948;2022-07-05T00:13:24;100961.03;;;21.63;100.00
45275;BME280;31019;43.780;25.948;2022-07-05T00:15:53;100960.19;;;21.78;100.00
45275;BME280;31019;43.780;25.948;2022-07-05T00:18:20;100953.25;;;22.31;100.00
45275;BME280;31019;43.780;25.948;2022-07-05T00:20:47;100956.84;;;22.16;100.00
45275;BME280;31019;43.780;25.948;2022-07-05T00:23:14;100950.56;;;22.26;100.00
45275;BME280;31019;43.780;25.948;2022-07-05T00:25:42;100944.03;;;22.37;100.00
45275;BME280;31019;43.780;25.948;2022-07-05T00:28:09;100941.25;;;22.48;100.00
45275;BME280;31019;43.780;25.948;2022-07-05T00:30:38;100942.66;;;22.40;100.00
45275;BME280;31019;43.780;25.948;2022-07-05T00:33:06;100949.69;;;22.36;100.00
45275;BME280;31019;43.780;25.948;2022-07-05T00:35:33;100940.75;;;22.46;100.00
45275;BME280;31019;43.780;25.948;2022-07-05T00:38:00;100939.94;;;22.40;100.00
45275;BME280;31019;43.780;25.948;2022-07-05T00:40:27;100938.84;;;22.41;100.00
45275;BME280;31019;43.780;25.948;2022-07-05T00:43:00;100932.91;;;22.39;100.00
45275;BME280;31019;43.780;25.948;2022-07-05T00:45:29;100934.03;;;22.33;100.00
45275;BME280;31019;43.780;25.948;2022-07-05T00:47:56;100927.25;;;22.35;100.00
45275;BME280;31019;43.780;25.948;2022-07-05T00:50:24;100933.19;;;22.37;100.00
45275;BME280;31019;43.780;25.948;2022-07-05T00:52:54;100932.72;;;22.30;100.00
45275;BME280;31019;43.780;25.948;2022-07-05T00:55:21;100922.69;;;22.31;100.00
45275;BME280;31019;43.780;25.948;2022-07-05T00:57:49;100918.09;;;22.26;100.00
45275;BME280;31019;43.780;25.948;2022-07-05T01:00:18;100914.34;;;22.27;100.00
45275;BME280;31019;43.780;25.948;2022-07-05T01:02:45;100913.19;;;21.63;100.00
45275;BME280;31019;43.780;25.948;2022-07-05T01:05:13;100911.22;;;21.94;100.00
45275;BME280;31019;43.780;25.948;2022-07-05T01:07:41;100912.81;;;21.90;100.00
45275;BME280;31019;43.780;25.948;2022-07-05T01:10:09;100912.19;;;22.19;100.00
45275;BME280;31019;43.780;25.948;2022-07-05T01:12:39;100913.53;;;22.11;100.00
45275;BME280;31019;43.780;25.948;2022-07-05T01:15:07;100911.38;;;21.43;100.00
45275;BME280;31019;43.780;25.948;2022-07-05T01:17:35;100911.38;;;21.48;100.00
45275;BME280;31019;43.780;25.948;2022-07-05T01:20:05;100911.94;;;21.10;100.00
45275;BME280;31019;43.780;25.948;2022-07-05T01:22:49;100914.06;;;21.38;100.00
45275;BME280;31019;43.780;25.948;2022-07-05T01:25:19;100913.53;;;21.21;100.00
45275;BME280;31019;43.780;25.948;2022-07-05T01:27:53;100914.91;;;21.08;100.00
45275;BME280;31019;43.780;25.948;2022-07-05T01:30:20;100914.09;;;21.02;100.00
45275;BME280;31019;43.780;25.948;2022-07-05T01:32:47;100911.38;;;21.23;100.00
45275;BME280;31019;43.780;25.948;2022-07-05T01:35:15;100908.94;;;21.26;100.00
45275;BME280;31019;43.780;25.948;2022-07-05T01:37:50;100914.53;;;21.71;100.00
45275;BME280;31019;43.780;25.948;2022-07-05T01:40:19;100918.28;;;21.80;100.00
45275;BME280;31019;43.780;25.948;2022-07-05T01:42:46;100916.75;;;21.59;100.00
45275;BME280;31019;43.780;25.948;2022-07-05T01:45:13;100918.34;;;21.65;100.00
45275;BME280;31019;43.780;25.948;2022-07-05T01:48:02;100918.38;;;21.29;100.00
45275;BME280;31019;43.780;25.948;2022-07-05T01:50:34;100921.66;;;21.11;100.00
45275;BME280;31019;43.780;25.948;2022-07-05T01:53:05;100927.59;;;20.92;100.00
45275;BME280;31019;43.780;25.948;2022-07-05T01:55:36;100927.88;;;20.86;100.00
45275;BME280;31019;43.780;25.948;2022-07-05T01:58:03;100926.53;;;21.03;100.00
45275;BME280;31019;43.780;25.948;2022-07-05T15:19:00;100656.81;;;33.98;37.83
45275;BME280;31019;43.780;25.948;2022-07-05T15:21:28;100660.88;;;33.85;38.24
45275;BME280;31019;43.780;25.948;2022-07-05T15:23:54;100672.41;;;33.91;37.76
45275;BME280;31019;43.780;25.948;2022-07-05T15:26:23;100672.88;;;33.54;39.84
45275;BME280;31019;43.780;25.948;2022-07-05T15:28:50;100661.84;;;33.73;38.69
45275;BME280;31019;43.780;25.948;2022-07-05T15:31:17;100658.91;;;33.63;39.59
45275;BME280;31019;43.780;25.948;2022-07-05T15:33:44;100666.59;;;33.54;42.37
45275;BME280;31019;43.780;25.948;2022-07-05T15:36:12;100673.00;;;33.61;39.76
45275;BME280;31019;43.780;25.948;2022-07-05T15:38:39;100671.56;;;33.67;39.28
45275;BME280;31019;43.780;25.948;2022-07-05T15:41:06;100673.13;;;33.49;39.41
45275;BME280;31019;43.780;25.948;2022-07-05T15:43:33;100667.22;;;33.47;39.42
45275;BME280;31019;43.780;25.948;2022-07-05T15:46:00;100676.94;;;33.05;40.69
45275;BME280;31019;43.780;25.948;2022-07-05T15:48:30;100675.53;;;32.96;40.72
45275;BME280;31019;43.780;25.948;2022-07-05T15:50:58;100675.88;;;32.94;40.68
45275;BME280;31019;43.780;25.948;2022-07-05T15:53:27;100680.59;;;32.94;41.02
45275;BME280;31019;43.780;25.948;2022-07-05T15:55:57;100672.47;;;32.81;40.91
45275;BME280;31019;43.780;25.948;2022-07-05T15:58:27;100678.69;;;32.63;41.82
45275;BME280;31019;43.780;25.948;2022-07-05T16:00:54;100683.56;;;32.69;42.10
45275;BME280;31019;43.780;25.948;2022-07-05T16:03:22;100680.63;;;32.78;42.44
45275;BME280;31019;43.780;25.948;2022-07-05T16:05:51;100675.88;;;32.94;41.91
45275;BME280;31019;43.780;25.948;2022-07-05T16:08:18;100677.78;;;32.43;42.39
45275;BME280;31019;43.780;25.948;2022-07-05T16:10:47;100676.28;;;32.29;42.67
45275;BME280;31019;43.780;25.948;2022-07-05T16:13:14;100666.28;;;32.53;42.02
45275;BME280;31019;43.780;25.948;2022-07-05T16:15:43;100664.31;;;32.37;43.14
45275;BME280;31019;43.780;25.948;2022-07-05T16:18:29;100673.16;;;32.31;43.71
45275;BME280;31019;43.780;25.948;2022-07-05T16:20:57;100676.38;;;32.33;42.74
45275;BME280;31019;43.780;25.948;2022-07-05T16:23:28;100662.53;;;32.13;48.21
45275;BME280;31019;43.780;25.948;2022-07-05T16:25:56;100661.13;;;32.20;43.88
45275;BME280;31019;43.780;25.948;2022-07-05T16:28:28;100658.09;;;32.09;44.25
45275;BME280;31019;43.780;25.948;2022-07-05T16:30:57;100664.22;;;32.02;44.28
45275;BME280;31019;43.780;25.948;2022-07-05T16:33:28;100678.19;;;31.97;43.78
45275;BME280;31019;43.780;25.948;2022-07-05T16:36:00;100675.16;;;31.86;44.68
45275;BME280;31019;43.780;25.948;2022-07-05T16:38:29;100671.72;;;31.77;45.09
45275;BME280;31019;43.780;25.948;2022-07-05T16:41:12;100671.09;;;31.68;45.09
45275;BME280;31019;43.780;25.948;2022-07-05T16:43:43;100682.59;;;31.58;45.26
45275;BME280;31019;43.780;25.948;2022-07-05T16:46:12;100673.78;;;31.52;44.94
45275;BME280;31019;43.780;25.948;2022-07-05T16:48:41;100679.78;;;31.42;45.40
45275;BME280;31019;43.780;25.948;2022-07-05T16:51:11;100684.03;;;31.39;45.62
45275;BME280;31019;43.780;25.948;2022-07-05T16:53:41;100687.25;;;31.85;45.00
45275;BME280;31019;43.780;25.948;2022-07-05T16:56:12;100684.03;;;31.27;45.88
45275;BME280;31019;43.780;25.948;2022-07-05T16:58:43;100686.00;;;31.14;46.54
45275;BME280;31019;43.780;25.948;2022-07-05T17:01:16;100690.47;;;31.07;47.58
45275;BME280;31019;43.780;25.948;2022-07-05T17:03:46;100689.56;;;31.02;48.86
45275;BME280;31019;43.780;25.948;2022-07-05T17:06:16;100689.00;;;30.97;48.04
45275;BME280;31019;43.780;25.948;2022-07-05T17:08:46;100691.06;;;30.88;48.12
45275;BME280;31019;43.780;25.948;2022-07-05T17:11:18;100703.50;;;30.85;48.19
45275;BME280;31019;43.780;25.948;2022-07-05T17:13:49;100702.78;;;30.64;50.35
45275;BME280;31019;43.780;25.948;2022-07-05T17:16:17;100696.84;;;30.62;54.29
45275;BME280;31019;43.780;25.948;2022-07-05T17:18:45;100703.00;;;30.58;50.40
45275;BME280;31019;43.780;25.948;2022-07-05T17:21:13;100704.28;;;30.61;51.14
45275;BME280;31019;43.780;25.948;2022-07-05T17:23:44;100706.69;;;30.63;54.45
45275;BME280;31019;43.780;25.948;2022-07-05T17:26:17;100697.53;;;30.46;51.15
45275;BME280;31019;43.780;25.948;2022-07-05T17:28:50;100697.63;;;30.38;50.82
45275;BME280;31019;43.780;25.948;2022-07-05T17:31:20;100702.56;;;30.44;50.69
45275;BME280;31019;43.780;25.948;2022-07-05T17:33:48;100693.31;;;30.49;51.65
45275;BME280;31019;43.780;25.948;2022-07-05T17:36:19;100695.44;;;30.31;51.21
45275;BME280;31019;43.780;25.948;2022-07-05T17:38:49;100696.13;;;29.95;53.04
45275;BME280;31019;43.780;25.948;2022-07-05T17:41:20;100695.44;;;29.98;53.88
45275;BME280;31019;43.780;25.948;2022-07-05T17:43:49;100696.91;;;29.95;54.56
45275;BME280;31019;43.780;25.948;2022-07-05T17:46:18;100702.16;;;29.88;54.63
45275;BME280;31019;43.780;25.948;2022-07-05T17:48:51;100704.88;;;29.88;55.19
45275;BME280;31019;43.780;25.948;2022-07-05T17:51:26;100704.34;;;29.53;56.85
45275;BME280;31019;43.780;25.948;2022-07-05T17:53:55;100716.31;;;29.48;56.31
45275;BME280;31019;43.780;25.948;2022-07-05T17:56:23;100702.81;;;29.43;57.04
45275;BME280;31019;43.780;25.948;2022-07-05T17:58:51;100706.69;;;29.42;57.54
45275;BME280;31019;43.780;25.948;2022-07-05T18:01:18;100690.66;;;29.32;57.60
45275;BME280;31019;43.780;25.948;2022-07-05T18:03:45;100696.00;;;29.28;57.70
45275;BME280;31019;43.780;25.948;2022-07-05T18:06:15;100689.69;;;29.36;58.09
45275;BME280;31019;43.780;25.948;2022-07-05T18:08:42;100697.09;;;29.36;57.74
45275;BME280;31019;43.780;25.948;2022-07-05T18:11:09;100693.94;;;29.25;58.38
45275;BME280;31019;43.780;25.948;2022-07-05T18:13:42;100706.69;;;29.21;58.46
45275;BME280;31019;43.780;25.948;2022-07-05T18:16:10;100700.66;;;29.07;58.72
45275;BME280;31019;43.780;25.948;2022-07-05T18:18:36;100700.34;;;28.99;59.60
45275;BME280;31019;43.780;25.948;2022-07-05T18:21:03;100694.00;;;28.87;59.66
45275;BME280;31019;43.780;25.948;2022-07-05T18:23:31;100697.16;;;28.97;59.40
45275;BME280;31019;43.780;25.948;2022-07-05T18:25:59;100696.91;;;28.82;60.78
45275;BME280;31019;43.780;25.948;2022-07-05T18:28:26;100703.56;;;28.72;61.22
45275;BME280;31019;43.780;25.948;2022-07-05T18:30:55;100696.19;;;28.64;62.15
45275;BME280;31019;43.780;25.948;2022-07-05T18:33:21;100695.56;;;28.58;62.89
45275;BME280;31019;43.780;25.948;2022-07-05T18:35:49;100685.97;;;28.52;62.80
45275;BME280;31019;43.780;25.948;2022-07-05T18:38:16;100692.22;;;28.52;63.09
45275;BME280;31019;43.780;25.948;2022-07-05T18:40:43;100699.31;;;28.36;63.67
45275;BME280;31019;43.780;25.948;2022-07-05T18:43:10;100700.13;;;28.45;63.99
45275;BME280;31019;43.780;25.948;2022-07-05T18:45:40;100707.19;;;28.46;63.62
45275;BME280;31019;43.780;25.948;2022-07-05T18:48:11;100720.19;;;28.49;64.78
45275;BME280;31019;43.780;25.948;2022-07-05T18:50:40;100711.72;;;28.42;65.89
45275;BME280;31019;43.780;25.948;2022-07-05T18:53:17;100707.00;;;28.51;67.28
45275;BME280;31019;43.780;25.948;2022-07-05T18:55:47;100700.63;;;28.30;70.57
45275;BME280;31019;43.780;25.948;2022-07-05T18:58:16;100704.97;;;28.22;69.79
45275;BME280;31019;43.780;25.948;2022-07-05T19:00:45;100710.16;;;27.72;74.38
45275;BME280;31019;43.780;25.948;2022-07-05T19:03:21;100722.19;;;27.71;76.58
45275;BME280;31019;43.780;25.948;2022-07-05T19:05:48;100716.25;;;27.51;79.88
45275;BME280;31019;43.780;25.948;2022-07-05T19:08:30;100714.81;;;27.45;81.80
45275;BME280;31019;43.780;25.948;2022-07-05T19:11:20;100726.50;;;27.37;84.53
45275;BME280;31019;43.780;25.948;2022-07-05T19:14:06;100730.66;;;27.26;87.23
45275;BME280;31019;43.780;25.948;2022-07-05T19:16:33;100719.28;;;27.24;89.06
45275;BME280;31019;43.780;25.948;2022-07-05T19:19:03;100727.44;;;27.15;91.18
45275;BME280;31019;43.780;25.948;2022-07-05T19:21:31;100723.69;;;27.11;96.28
45275;BME280;31019;43.780;25.948;2022-07-05T19:24:00;100720.50;;;27.09;94.25
45275;BME280;31019;43.780;25.948;2022-07-05T19:26:33;100710.06;;;27.02;96.81
45275;BME280;31019;43.780;25.948;2022-07-05T19:29:00;100721.56;;;26.90;99.20
45275;BME280;31019;43.780;25.948;2022-07-05T19:31:28;100725.59;;;27.02;99.04
45275;BME280;31019;43.780;25.948;2022-07-05T19:33:55;100728.13;;;26.89;100.00
45275;BME280;31019;43.780;25.948;2022-07-05T19:36:26;100718.31;;;26.80;100.00
45275;BME280;31019;43.780;25.948;2022-07-05T19:38:56;100715.25;;;26.72;100.00
45275;BME280;31019;43.780;25.948;2022-07-05T19:41:23;100728.25;;;26.76;100.00
45275;BME280;31019;43.780;25.948;2022-07-05T19:43:51;100726.78;;;26.69;100.00
45275;BME280;31019;43.780;25.948;2022-07-05T19:46:17;100718.06;;;26.59;100.00
45275;BME280;31019;43.780;25.948;2022-07-05T19:48:54;100722.63;;;26.72;100.00
45275;BME280;31019;43.780;25.948;2022-07-05T19:51:26;100719.19;;;26.58;100.00
45275;BME280;31019;43.780;25.948;2022-07-05T19:54:01;100713.22;;;26.56;100.00
45275;BME280;31019;43.780;25.948;2022-07-05T19:56:48;100719.19;;;26.58;100.00
45275;BME280;31019;43.780;25.948;2022-07-05T19:59:16;100716.75;;;26.56;100.00
45275;BME280;31019;43.780;25.948;2022-07-05T20:01:46;100728.28;;;26.31;100.00
45275;BME280;31019;43.780;25.948;2022-07-05T20:04:24;100720.13;;;26.31;100.00
45275;BME280;31019;43.780;25.948;2022-07-05T20:06:55;100731.19;;;26.34;100.00
45275;BME280;31019;43.780;25.948;2022-07-05T20:09:24;100718.47;;;26.21;100.00
45275;BME280;31019;43.780;25.948;2022-07-05T20:12:00;100722.53;;;26.32;100.00
45275;BME280;31019;43.780;25.948;2022-07-05T20:14:32;100719.69;;;26.37;100.00
45275;BME280;31019;43.780;25.948;2022-07-05T20:17:04;100710.59;;;26.19;100.00
45275;BME280;31019;43.780;25.948;2022-07-05T20:19:33;100725.09;;;26.06;100.00
45275;BME280;31019;43.780;25.948;2022-07-05T20:22:20;100720.91;;;26.00;100.00
45275;BME280;31019;43.780;25.948;2022-07-05T20:24:55;100715.91;;;25.93;100.00
45275;BME280;31019;43.780;25.948;2022-07-05T20:27:23;100722.69;;;25.82;100.00
45275;BME280;31019;43.780;25.948;2022-07-05T20:29:52;100723.66;;;25.86;100.00
45275;BME280;31019;43.780;25.948;2022-07-05T20:32:19;100724.94;;;25.66;100.00
45275;BME280;31019;43.780;25.948;2022-07-05T20:34:46;100724.06;;;25.57;100.00
45275;BME280;31019;43.780;25.948;2022-07-05T20:37:16;100731.66;;;25.69;100.00
45275;BME280;31019;43.780;25.948;2022-07-05T20:39:46;100741.47;;;25.56;100.00
45275;BME280;31019;43.780;25.948;2022-07-05T20:42:14;100727.78;;;25.47;100.00
45275;BME280;31019;43.780;25.948;2022-07-05T20:44:42;100738.00;;;25.28;100.00
45275;BME280;31019;43.780;25.948;2022-07-05T20:47:12;100732.47;;;25.33;100.00
45275;BME280;31019;43.780;25.948;2022-07-05T20:49:39;100733.47;;;25.59;100.00
45275;BME280;31019;43.780;25.948;2022-07-05T20:52:06;100738.88;;;25.51;100.00
45275;BME280;31019;43.780;25.948;2022-07-05T20:54:37;100737.59;;;25.71;100.00
45275;BME280;31019;43.780;25.948;2022-07-05T20:57:05;100729.63;;;25.74;100.00
45275;BME280;31019;43.780;25.948;2022-07-05T20:59:32;100732.66;;;25.73;100.00
45275;BME280;31019;43.780;25.948;2022-07-05T21:01:59;100733.28;;;25.70;100.00
45275;BME280;31019;43.780;25.948;2022-07-05T21:04:26;100740.03;;;25.58;100.00
45275;BME280;31019;43.780;25.948;2022-07-05T21:06:56;100733.31;;;25.56;100.00
45275;BME280;31019;43.780;25.948;2022-07-05T21:09:26;100735.84;;;25.52;100.00
45275;BME280;31019;43.780;25.948;2022-07-05T21:11:56;100737.38;;;25.45;100.00
45275;BME280;31019;43.780;25.948;2022-07-05T21:14:22;100749.25;;;25.07;100.00
45275;BME280;31019;43.780;25.948;2022-07-05T21:16:49;100742.81;;;25.17;100.00
45275;BME280;31019;43.780;25.948;2022-07-05T21:19:17;100734.28;;;25.24;100.00
45275;BME280;31019;43.780;25.948;2022-07-05T21:21:43;100741.72;;;25.18;100.00
45275;BME280;31019;43.780;25.948;2022-07-05T21:24:11;100743.31;;;25.05;100.00
45275;BME280;31019;43.780;25.948;2022-07-05T21:26:44;100755.78;;;24.92;100.00
45275;BME280;31019;43.780;25.948;2022-07-05T21:29:15;100757.69;;;24.92;100.00
45275;BME280;31019;43.780;25.948;2022-07-05T21:31:48;100766.53;;;24.84;100.00
45275;BME280;31019;43.780;25.948;2022-07-05T21:34:15;100768.16;;;24.85;100.00
45275;BME280;31019;43.780;25.948;2022-07-05T21:36:42;100774.31;;;24.90;100.00
45275;BME280;31019;43.780;25.948;2022-07-05T21:39:09;100777.13;;;24.85;100.00
45275;BME280;31019;43.780;25.948;2022-07-05T21:41:36;100780.81;;;24.89;100.00
45275;BME280;31019;43.780;25.948;2022-07-05T21:44:04;100784.16;;;25.00;100.00
45275;BME280;31019;43.780;25.948;2022-07-05T21:46:32;100782.59;;;25.13;100.00
45275;BME280;31019;43.780;25.948;2022-07-05T21:49:03;100778.25;;;25.26;100.00
45275;BME280;31019;43.780;25.948;2022-07-05T21:51:31;100772.81;;;25.26;100.00
45275;BME280;31019;43.780;25.948;2022-07-05T21:54:04;100776.75;;;25.20;100.00
45275;BME280;31019;43.780;25.948;2022-07-05T21:56:30;100771.44;;;25.15;100.00
45275;BME280;31019;43.780;25.948;2022-07-05T21:58:58;100765.97;;;25.28;100.00
45275;BME280;31019;43.780;25.948;2022-07-05T22:01:44;100762.84;;;25.35;100.00
45275;BME280;31019;43.780;25.948;2022-07-05T22:04:31;100772.81;;;25.40;100.00
45275;BME280;31019;43.780;25.948;2022-07-05T22:07:02;100765.16;;;25.14;100.00
45275;BME280;31019;43.780;25.948;2022-07-05T22:09:34;100764.97;;;25.24;100.00
45275;BME280;31019;43.780;25.948;2022-07-05T22:12:04;100763.34;;;25.09;100.00
45275;BME280;31019;43.780;25.948;2022-07-05T22:14:34;100763.88;;;25.25;100.00
45275;BME280;31019;43.780;25.948;2022-07-05T22:17:10;100764.75;;;25.34;100.00
45275;BME280;31019;43.780;25.948;2022-07-05T22:19:42;100753.50;;;25.27;100.00
45275;BME280;31019;43.780;25.948;2022-07-05T22:22:12;100769.19;;;25.17;100.00
45275;BME280;31019;43.780;25.948;2022-07-05T22:24:39;100761.31;;;24.74;100.00
45275;BME280;31019;43.780;25.948;2022-07-05T22:27:06;100767.44;;;24.79;100.00
45275;BME280;31019;43.780;25.948;2022-07-05T22:29:32;100765.25;;;24.95;100.00
45275;BME280;31019;43.780;25.948;2022-07-05T22:32:04;100769.56;;;24.82;100.00
45275;BME280;31019;43.780;25.948;2022-07-05T22:34:31;100773.00;;;24.88;100.00
45275;BME280;31019;43.780;25.948;2022-07-05T22:37:01;100764.53;;;24.89;100.00
45275;BME280;31019;43.780;25.948;2022-07-05T22:39:29;100766.03;;;24.82;100.00
45275;BME280;31019;43.780;25.948;2022-07-05T22:42:00;100772.47;;;24.72;100.00
45275;BME280;31019;43.780;25.948;2022-07-05T22:44:27;100768.84;;;24.77;100.00
45275;BME280;31019;43.780;25.948;2022-07-05T22:46:54;100771.47;;;24.82;100.00
45275;BME280;31019;43.780;25.948;2022-07-05T22:49:25;100770.38;;;24.69;100.00
45275;BME280;31019;43.780;25.948;2022-07-05T22:51:52;100763.50;;;24.72;100.00
45275;BME280;31019;43.780;25.948;2022-07-05T22:54:19;100776.31;;;24.85;100.00
45275;BME280;31019;43.780;25.948;2022-07-05T22:56:48;100780.22;;;24.79;100.00
45275;BME280;31019;43.780;25.948;2022-07-05T22:59:15;100784.75;;;24.83;100.00
45275;BME280;31019;43.780;25.948;2022-07-05T23:01:43;100790.69;;;24.85;100.00
45275;BME280;31019;43.780;25.948;2022-07-05T23:04:13;100789.19;;;24.93;100.00
45275;BME280;31019;43.780;25.948;2022-07-05T23:06:50;100786.06;;;24.86;100.00
45275;BME280;31019;43.780;25.948;2022-07-05T23:09:16;100782.53;;;24.85;100.00
45275;BME280;31019;43.780;25.948;2022-07-05T23:11:43;100782.75;;;24.89;100.00
45275;BME280;31019;43.780;25.948;2022-07-05T23:14:13;100785.56;;;24.98;100.00
45275;BME280;31019;43.780;25.948;2022-07-05T23:16:41;100779.31;;;24.83;100.00
45275;BME280;31019;43.780;25.948;2022-07-05T23:19:08;100787.06;;;24.76;100.00
45275;BME280;31019;43.780;25.948;2022-07-05T23:21:35;100775.00;;;24.82;100.00
45275;BME280;31019;43.780;25.948;2022-07-05T23:24:04;100774.16;;;24.68;100.00
45275;BME280;31019;43.780;25.948;2022-07-05T23:26:51;100770.31;;;24.55;100.00
45275;BME280;31019;43.780;25.948;2022-07-05T23:29:18;100770.91;;;24.52;100.00
45275;BME280;31019;43.780;25.948;2022-07-05T23:31:45;100761.66;;;24.53;100.00
45275;BME280;31019;43.780;25.948;2022-07-05T23:34:13;100758.47;;;24.51;100.00
45275;BME280;31019;43.780;25.948;2022-07-05T23:36:44;100753.09;;;24.46;100.00
45275;BME280;31019;43.780;25.948;2022-07-05T23:39:12;100760.81;;;24.39;100.00
45275;BME280;31019;43.780;25.948;2022-07-05T23:41:40;100755.16;;;24.35;100.00
45275;BME280;31019;43.780;25.948;2022-07-05T23:44:08;100753.13;;;24.27;100.00
45275;BME280;31019;43.780;25.948;2022-07-05T23:46:35;100752.19;;;24.18;100.00
45275;BME280;31019;43.780;25.948;2022-07-05T23:49:03;100763.09;;;24.32;100.00
45275;BME280;31019;43.780;25.948;2022-07-05T23:51:32;100760.38;;;24.32;100.00
45275;BME280;31019;43.780;25.948;2022-07-05T23:54:02;100767.44;;;24.33;100.00
45275;BME280;31019;43.780;25.948;2022-07-05T23:56:31;100765.44;;;23.63;100.00
45275;BME280;31019;43.780;25.948;2022-07-05T23:58:57;100778.19;;;23.43;100.00
